Aeroporto :
LOGIN :

Iscrizione | Disclaimer

   EN    FR    IT 

 










Sommario :    VFR   VFR Marginale   IFR   IFR Intensivo   IFR Molto Intensivo
Visibilità : 
Base nubi : 
>= 8 km
>= 3000ft
5 / 8 km
1000 / 3000 ft
1500m / 5 km
500 / 1000 ft
800 / 1500m
200 / 500 ft
< 800m
< 200 ft
Simboli :   Temporali  Nebbia  Neve Forte  Precipitazioni Forti  Vento > 20 kt
SIGMETs :   Varie  Temporali  Ghiacco  Turbolenza  Onda orograficha  Ceneri Vulcaniche






- Altitudine del aeroporto : 233 ft
- Codice IATA : REU


LERS - Reus Tarragona

ULTIMO METAR :
  • 091300Z 15006KT 070V200 CAVOK 32/19 Q1015

METARs OBSOLETI :
  • 091230Z VRB04KT CAVOK 32/19 Q1016
  • 091200Z VRB05KT CAVOK 32/20 Q1016
  • 091130Z 10005KT 040V190 CAVOK 33/20 Q1016
  • 091100Z 14006KT 060V210 CAVOK 32/19 Q1017
  • 091030Z 11006KT 050V190 CAVOK 32/21 Q1017

TAF AMD TAF LERS
Valido dal 09 a 12 ore il 10 a 09 ore UTC


091233Z 0912/1009 VRB05KT 9999 FEW030 TX34/0913Z TN21/1005Z
TEMPO 0912/0916 10007KT
TEMPO 0912/0918 22010KT



MetMap, La meteo Aeronautica in un colpo d'occhio ! - Copyright ORBIFLY Dicembre 2007 - Disclaimer

ORBIFLY MET'MAP TEAM :

Programmazione e sviluppo : Alexandra Zaïnal
Concezione : Baudouin d'Aumeries
Aiuto per la programmazione : Marc-Olivier Méhu
Supporto tecnico e logistico : Manuel Goepfert
Aiuto per la traduzione : Arnaldo La Scala

Contatto : metmap@orbifly.com




FONTI E CREDITI :

   NOAA